createdAt,value
2019-01-21T00:00:06.747Z,71.17
2019-01-21T00:01:06.739Z,70.86
2019-01-21T00:02:06.723Z,70.93
2019-01-21T00:03:14.123Z,70.83
2019-01-21T00:04:07.704Z,70.83
2019-01-21T00:05:06.684Z,70.72
2019-01-21T00:06:06.694Z,70.54
2019-01-21T00:07:06.665Z,70.96
2019-01-21T00:08:06.685Z,71.48
2019-01-21T00:09:06.640Z,70.86
2019-01-21T00:10:06.635Z,70.75
2019-01-21T00:11:06.646Z,70.86
2019-01-21T00:12:06.605Z,70.75
2019-01-21T00:13:06.637Z,71.28
2019-01-21T00:14:06.611Z,71.06
2019-01-21T00:15:06.571Z,70.96
2019-01-21T00:16:06.567Z,71.17
2019-01-21T00:17:06.557Z,70.75
2019-01-21T00:18:06.550Z,70.96
2019-01-21T00:19:06.556Z,70.86
2019-01-21T00:20:06.543Z,70.83
2019-01-21T00:21:06.510Z,70.72
2019-01-21T00:22:06.497Z,70.43
2019-01-21T00:23:06.495Z,69.36
2019-01-21T00:24:06.504Z,69.57
2019-01-21T00:25:06.467Z,70.43
2019-01-21T00:26:06.540Z,69.70
2019-01-21T00:27:06.446Z,69.99
2019-01-21T00:28:06.427Z,69.92
2019-01-21T00:29:06.444Z,69.60
2019-01-21T00:30:06.433Z,69.60
2019-01-21T00:31:06.406Z,70.43
2019-01-21T00:32:06.387Z,70.65
2019-01-21T00:33:06.374Z,70.86
2019-01-21T00:34:06.385Z,70.23
2019-01-21T00:35:06.359Z,70.96
2019-01-21T00:36:06.348Z,70.99
2019-01-21T00:37:06.353Z,70.08
2019-01-21T00:38:06.354Z,70.92
2019-01-21T00:39:06.322Z,71.55
2019-01-21T00:40:06.303Z,72.21
2019-01-21T00:41:06.305Z,71.89
2019-01-21T00:42:06.327Z,72.11
2019-01-21T00:43:06.265Z,72.84
2019-01-21T00:44:06.259Z,72.77
2019-01-21T00:45:06.247Z,72.87
2019-01-21T00:46:06.237Z,73.39
2019-01-21T00:47:06.227Z,74.02
2019-01-21T00:48:06.261Z,73.82
2019-01-21T00:49:06.225Z,73.50
2019-01-21T00:50:06.246Z,73.39
2019-01-21T00:51:06.187Z,73.50
2019-01-21T00:52:06.178Z,73.19
2019-01-21T00:53:06.163Z,73.92
2019-01-21T00:54:06.148Z,73.92
2019-01-21T00:55:06.141Z,74.13
2019-01-21T00:56:06.159Z,74.24
2019-01-21T00:57:06.122Z,74.44
2019-01-21T00:58:06.110Z,73.92
2019-01-21T00:59:06.097Z,73.71
2019-01-21T01:00:06.091Z,74.10
2019-01-21T01:01:06.099Z,73.15
2019-01-21T01:02:06.093Z,73.47
2019-01-21T01:03:06.058Z,73.89
2019-01-21T01:04:06.087Z,73.89
2019-01-21T01:05:06.056Z,73.75
2019-01-21T01:06:06.030Z,73.02
2019-01-21T01:07:06.013Z,72.70
2019-01-21T01:08:06.009Z,72.67
2019-01-21T01:09:05.986Z,72.60
2019-01-21T01:10:06.009Z,72.25
2019-01-21T01:11:05.970Z,72.14
2019-01-21T01:12:05.956Z,72.25
2019-01-21T01:13:05.950Z,72.04
2019-01-21T01:14:05.962Z,71.86
2019-01-21T01:15:05.929Z,72.04
2019-01-21T01:16:05.922Z,72.56
2019-01-21T01:17:05.903Z,72.67
2019-01-21T01:18:05.954Z,72.25
2019-01-21T01:19:05.905Z,71.94
2019-01-21T01:20:05.871Z,71.62
2019-01-21T01:21:05.861Z,71.73
2019-01-21T01:22:05.854Z,71.83
2019-01-21T01:23:05.843Z,72.14
2019-01-21T01:24:05.871Z,71.94
2019-01-21T01:25:05.849Z,71.94
2019-01-21T01:26:05.804Z,71.73
2019-01-21T01:27:05.802Z,72.18
2019-01-21T01:28:05.797Z,72.04
2019-01-21T01:29:05.776Z,72.28
2019-01-21T01:30:05.820Z,71.31
2019-01-21T01:31:05.754Z,71.94
2019-01-21T01:32:05.749Z,71.76
2019-01-21T01:33:05.737Z,72.04
2019-01-21T01:34:05.773Z,72.04
2019-01-21T01:35:05.718Z,72.81
2019-01-21T01:36:05.729Z,72.25
2019-01-21T01:37:05.691Z,71.94
2019-01-21T01:38:05.678Z,72.07
2019-01-21T01:39:05.673Z,72.04
2019-01-21T01:40:05.658Z,72.39
2019-01-21T01:41:05.719Z,72.49
2019-01-21T01:42:05.642Z,73.02
2019-01-21T01:43:05.652Z,73.33
2019-01-21T01:44:05.619Z,73.12
2019-01-21T01:45:05.634Z,72.60
2019-01-21T01:46:05.606Z,72.70
2019-01-21T01:47:05.663Z,72.70
2019-01-21T01:48:05.573Z,73.44
2019-01-21T01:49:05.594Z,73.75
2019-01-21T01:50:05.551Z,73.12
2019-01-21T01:51:05.620Z,73.36
2019-01-21T01:52:05.565Z,73.47
2019-01-21T01:53:05.658Z,73.79
2019-01-21T01:54:05.521Z,73.68
2019-01-21T01:55:05.540Z,73.57
2019-01-21T01:56:05.491Z,73.65
2019-01-21T01:57:05.488Z,73.47
2019-01-21T01:58:05.497Z,73.47
2019-01-21T01:59:05.460Z,73.36
2019-01-21T02:00:05.450Z,73.36
2019-01-21T02:01:05.437Z,73.68
2019-01-21T02:02:05.433Z,73.99
2019-01-21T02:03:05.488Z,73.29
2019-01-21T02:04:05.410Z,73.57
2019-01-21T02:05:05.400Z,73.99
2019-01-21T02:06:05.397Z,72.91
2019-01-21T02:07:05.372Z,72.74
2019-01-21T02:08:05.370Z,72.49
2019-01-21T02:09:05.383Z,72.70
2019-01-21T02:10:05.346Z,72.28
2019-01-21T02:11:05.333Z,72.28
2019-01-21T02:12:05.321Z,72.31
2019-01-21T02:13:05.315Z,72.94
2019-01-21T02:14:05.361Z,72.94
2019-01-21T02:15:05.302Z,72.94
2019-01-21T02:16:05.282Z,72.94
2019-01-21T02:17:05.270Z,72.94
2019-01-21T02:18:05.260Z,72.42
2019-01-21T02:19:05.248Z,73.08
2019-01-21T02:20:05.278Z,73.11
2019-01-21T02:21:05.234Z,74.65
2019-01-21T02:22:05.214Z,74.79
2019-01-21T02:23:05.218Z,75.32
2019-01-21T02:24:05.201Z,75.14
2019-01-21T02:25:05.214Z,75.46
2019-01-21T02:26:05.174Z,75.56
2019-01-21T02:27:05.158Z,76.09
2019-01-21T02:28:05.148Z,76.40
2019-01-21T02:29:05.150Z,75.63
2019-01-21T02:30:05.158Z,75.32
2019-01-21T02:31:05.121Z,75.21
2019-01-21T02:32:05.112Z,75.53
2019-01-21T02:33:05.100Z,75.74
2019-01-21T02:34:05.093Z,75.21
2019-01-21T02:35:05.099Z,75.63
2019-01-21T02:36:05.094Z,75.84
2019-01-21T02:37:05.110Z,75.21
2019-01-21T02:38:05.045Z,75.14
2019-01-21T02:39:05.043Z,75.46
2019-01-21T02:40:05.026Z,75.56
2019-01-21T02:41:05.044Z,75.95
2019-01-21T02:42:04.996Z,75.78
2019-01-21T02:43:05.011Z,76.40
2019-01-21T02:44:04.981Z,75.53
2019-01-21T02:45:04.974Z,75.21
2019-01-21T02:46:04.993Z,75.60
2019-01-21T02:47:04.974Z,74.58
2019-01-21T02:48:04.939Z,74.76
2019-01-21T02:49:04.928Z,74.76
2019-01-21T02:50:04.910Z,74.97
2019-01-21T02:51:04.904Z,74.44
2019-01-21T02:52:04.948Z,73.82
2019-01-21T02:53:04.882Z,75.07
2019-01-21T02:54:04.863Z,75.07
2019-01-21T02:55:04.865Z,74.76
2019-01-21T02:56:04.863Z,74.87
2019-01-21T02:57:04.836Z,73.39
2019-01-21T02:58:04.856Z,74.02
2019-01-21T02:59:04.815Z,74.02
2019-01-21T03:00:04.800Z,74.55
2019-01-21T03:01:04.794Z,73.92
2019-01-21T03:02:04.926Z,73.79
2019-01-21T03:03:04.806Z,73.99
2019-01-21T03:04:04.778Z,74.20
2019-01-21T03:05:04.747Z,73.99
2019-01-21T03:06:04.739Z,73.99
2019-01-21T03:07:04.730Z,73.68
2019-01-21T03:08:04.738Z,73.79
2019-01-21T03:09:04.710Z,74.20
2019-01-21T03:10:04.689Z,73.79
2019-01-21T03:11:04.679Z,73.89
2019-01-21T03:12:04.721Z,74.13
2019-01-21T03:13:04.684Z,73.82
2019-01-21T03:14:04.676Z,74.34
2019-01-21T03:15:04.647Z,74.27
2019-01-21T03:16:04.650Z,74.79
2019-01-21T03:17:04.617Z,75.39
2019-01-21T03:18:08.063Z,74.87
2019-01-21T03:19:04.593Z,74.87
2019-01-21T03:20:04.634Z,74.76
2019-01-21T03:21:04.579Z,74.87
2019-01-21T03:22:04.558Z,73.92
2019-01-21T03:23:04.547Z,74.37
2019-01-21T03:24:04.542Z,74.79
2019-01-21T03:25:04.538Z,74.62
2019-01-21T03:26:04.544Z,75.14
2019-01-21T03:27:04.554Z,75.38
2019-01-21T03:28:04.497Z,75.60
2019-01-21T03:29:04.483Z,76.02
2019-01-21T03:30:04.494Z,76.43
2019-01-21T03:31:04.470Z,77.38
2019-01-21T03:32:04.469Z,77.38
2019-01-21T03:33:04.464Z,75.98
2019-01-21T03:34:04.434Z,75.88
2019-01-21T03:35:04.441Z,75.88
2019-01-21T03:36:04.640Z,76.09
2019-01-21T03:37:04.397Z,75.95
2019-01-21T03:38:04.389Z,75.32
2019-01-21T03:39:04.388Z,75.21
2019-01-21T03:40:04.362Z,75.11
2019-01-21T03:41:04.386Z,75.04
2019-01-21T03:42:04.347Z,75.25
2019-01-21T03:43:04.332Z,75.56
2019-01-21T03:44:04.391Z,75.78
2019-01-21T03:45:04.315Z,75.98
2019-01-21T03:46:05.333Z,75.46
2019-01-21T03:47:04.286Z,75.14
2019-01-21T03:48:04.287Z,75.46
2019-01-21T03:49:04.267Z,75.56
2019-01-21T03:50:04.276Z,76.09
2019-01-21T03:51:04.249Z,75.35
2019-01-21T03:52:04.259Z,75.46
2019-01-21T03:53:04.221Z,76.02
2019-01-21T03:54:04.208Z,75.70
2019-01-21T03:55:04.216Z,76.47
2019-01-21T03:56:04.190Z,76.96
2019-01-21T03:57:04.230Z,76.65
2019-01-21T03:58:05.626Z,76.33
2019-01-21T03:59:04.168Z,75.81
2019-01-21T04:00:04.147Z,76.33
2019-01-21T04:01:04.140Z,76.75
2019-01-21T04:02:04.139Z,77.48
2019-01-21T04:03:04.145Z,77.45
2019-01-21T04:04:04.105Z,76.61
2019-01-21T04:05:04.090Z,76.40
2019-01-21T04:06:04.084Z,76.57
2019-01-21T04:07:04.072Z,75.42
2019-01-21T04:08:04.080Z,74.48
2019-01-21T04:09:04.081Z,75.21
2019-01-21T04:10:04.038Z,74.69
2019-01-21T04:11:04.028Z,74.93
2019-01-21T04:12:04.010Z,75.18
2019-01-21T04:13:03.999Z,76.68
2019-01-21T04:14:04.032Z,77.31
2019-01-21T04:15:03.978Z,77.21
2019-01-21T04:16:03.974Z,77.24
2019-01-21T04:17:03.997Z,77.66
2019-01-21T04:18:03.957Z,77.14
2019-01-21T04:19:03.940Z,77.62
2019-01-21T04:20:03.949Z,77.24
2019-01-21T04:21:03.917Z,77.52
2019-01-21T04:22:03.915Z,77.52
2019-01-21T04:23:03.891Z,76.47
2019-01-21T04:24:03.932Z,76.23
2019-01-21T04:25:03.877Z,76.23
2019-01-21T04:26:03.857Z,76.12
2019-01-21T04:27:03.853Z,75.49
2019-01-21T04:28:03.836Z,75.84
2019-01-21T04:29:03.823Z,75.84
2019-01-21T04:30:03.858Z,76.26
2019-01-21T04:31:03.822Z,76.68
2019-01-21T04:32:03.792Z,77.35
2019-01-21T04:33:03.787Z,77.35
2019-01-21T04:34:03.790Z,77.14
2019-01-21T04:35:03.841Z,77.24
2019-01-21T04:36:03.750Z,77.35
2019-01-21T04:37:03.749Z,77.03
2019-01-21T04:38:03.731Z,77.56
2019-01-21T04:39:03.722Z,77.35
2019-01-21T04:40:03.706Z,77.45
2019-01-21T04:41:03.720Z,77.59
2019-01-21T04:42:03.691Z,77.48
2019-01-21T04:43:03.681Z,77.80
2019-01-21T04:44:03.667Z,78.22
2019-01-21T04:45:03.674Z,78.54
2019-01-21T04:46:03.677Z,77.70
2019-01-21T04:47:03.633Z,78.12
2019-01-21T04:48:03.627Z,78.08
2019-01-21T04:49:03.631Z,77.56
2019-01-21T04:50:03.595Z,77.45
2019-01-21T04:51:03.649Z,77.45
2019-01-21T04:52:03.580Z,77.45
2019-01-21T04:53:03.573Z,77.31
2019-01-21T04:54:03.606Z,77.66
2019-01-21T04:55:03.557Z,77.80
2019-01-21T04:56:03.534Z,78.64
2019-01-21T04:57:03.574Z,78.19
2019-01-21T04:58:03.517Z,78.22
2019-01-21T04:59:03.497Z,77.98
2019-01-21T05:00:03.493Z,77.91
2019-01-21T05:01:03.490Z,78.22
2019-01-21T05:02:03.507Z,78.54
2019-01-21T05:03:03.454Z,78.54
2019-01-21T05:04:03.454Z,78.71
2019-01-21T05:05:03.445Z,78.50
2019-01-21T05:06:03.426Z,78.33
2019-01-21T05:07:03.460Z,78.29
2019-01-21T05:08:03.599Z,78.29
2019-01-21T05:09:03.420Z,78.29
2019-01-21T05:10:03.386Z,78.29
2019-01-21T05:11:03.364Z,78.19
2019-01-21T05:12:03.464Z,78.50
2019-01-21T05:13:03.350Z,77.52
2019-01-21T05:14:03.355Z,77.62
2019-01-21T05:15:03.337Z,77.94
2019-01-21T05:16:03.314Z,77.87
2019-01-21T05:17:03.308Z,78.26
2019-01-21T05:18:03.318Z,78.40
2019-01-21T05:19:03.287Z,78.50
2019-01-21T05:20:03.277Z,78.61
2019-01-21T05:21:03.261Z,78.61
2019-01-21T05:22:03.252Z,79.24
2019-01-21T05:23:03.269Z,79.13
2019-01-21T05:24:03.233Z,78.71
2019-01-21T05:25:03.251Z,78.89
2019-01-21T05:26:03.207Z,78.99
2019-01-21T05:27:03.190Z,78.99
2019-01-21T05:28:03.195Z,78.15
2019-01-21T05:29:03.173Z,77.62
2019-01-21T05:30:03.162Z,78.57
2019-01-21T05:31:03.186Z,78.15
2019-01-21T05:32:03.148Z,78.36
2019-01-21T05:33:03.126Z,78.19
2019-01-21T05:34:03.113Z,78.67
2019-01-21T05:35:03.130Z,78.47
2019-01-21T05:36:03.122Z,78.05
2019-01-21T05:37:03.134Z,78.15
2019-01-21T05:38:03.076Z,78.40
2019-01-21T05:39:03.059Z,78.40
2019-01-21T05:40:03.057Z,78.71
2019-01-21T05:41:03.059Z,78.40
2019-01-21T05:42:03.030Z,78.29
2019-01-21T05:43:03.059Z,77.87
2019-01-21T05:44:03.008Z,77.66
2019-01-21T05:45:03.006Z,77.76
2019-01-21T05:46:02.991Z,77.76
2019-01-21T05:47:02.975Z,77.87
2019-01-21T05:48:03.039Z,78.33
2019-01-21T05:49:02.958Z,78.44
2019-01-21T05:50:02.944Z,79.10
2019-01-21T05:51:02.936Z,78.96
2019-01-21T05:52:02.915Z,78.75
2019-01-21T05:53:02.950Z,79.73
2019-01-21T05:54:02.899Z,79.69
2019-01-21T05:55:02.929Z,79.80
2019-01-21T05:56:02.882Z,78.40
2019-01-21T05:57:02.873Z,78.19
2019-01-21T05:58:02.909Z,78.33
2019-01-21T05:59:02.850Z,78.64
2019-01-21T06:00:02.860Z,78.12
2019-01-21T06:01:02.819Z,78.44
2019-01-21T06:02:02.839Z,79.06
2019-01-21T06:03:02.797Z,79.17
2019-01-21T06:04:02.817Z,79.27
2019-01-21T06:05:02.781Z,78.85
2019-01-21T06:06:02.776Z,79.24
2019-01-21T06:07:02.755Z,78.85
2019-01-21T06:08:02.746Z,79.17
2019-01-21T06:09:02.758Z,78.85
2019-01-21T06:10:02.755Z,79.06
2019-01-21T06:11:02.724Z,78.92
2019-01-21T06:12:02.704Z,78.40
2019-01-21T06:13:02.691Z,78.19
2019-01-21T06:14:02.680Z,78.75
2019-01-21T06:15:02.707Z,78.71
2019-01-21T06:16:02.662Z,78.08
2019-01-21T06:17:02.653Z,78.50
2019-01-21T06:18:02.633Z,79.13
2019-01-21T06:19:02.629Z,78.82
2019-01-21T06:20:02.628Z,78.22
2019-01-21T06:21:02.635Z,78.50
2019-01-21T06:22:02.632Z,79.06
2019-01-21T06:23:02.627Z,78.61
2019-01-21T06:24:02.576Z,78.40
2019-01-21T06:25:02.562Z,78.71
2019-01-21T06:26:02.586Z,78.29
2019-01-21T06:27:02.592Z,78.92
2019-01-21T06:28:02.536Z,78.47
2019-01-21T06:29:02.545Z,77.94
2019-01-21T06:30:02.539Z,77.84
2019-01-21T06:31:02.512Z,78.47
2019-01-21T06:32:02.491Z,77.84
2019-01-21T06:33:02.501Z,77.62
2019-01-21T06:34:02.476Z,77.73
2019-01-21T06:35:02.470Z,77.31
2019-01-21T06:36:02.438Z,77.42
2019-01-21T06:37:02.442Z,77.48
2019-01-21T06:38:02.425Z,76.33
2019-01-21T06:39:02.447Z,76.47
2019-01-21T06:40:02.408Z,76.68
2019-01-21T06:41:02.385Z,76.02
2019-01-21T06:42:02.370Z,75.95
2019-01-21T06:43:02.438Z,76.05
2019-01-21T06:44:02.379Z,77.52
2019-01-21T06:45:02.355Z,77.42
2019-01-21T06:46:02.365Z,76.47
2019-01-21T06:47:02.320Z,76.47
2019-01-21T06:48:02.308Z,76.57
2019-01-21T06:49:04.876Z,77.66
2019-01-21T06:50:02.316Z,77.45
2019-01-21T06:51:02.300Z,77.45
2019-01-21T06:52:02.272Z,77.91
2019-01-21T06:53:02.275Z,78.29
2019-01-21T06:54:02.247Z,78.29
2019-01-21T06:55:02.257Z,78.19
2019-01-21T06:56:02.553Z,77.87
2019-01-21T06:57:02.212Z,77.94
2019-01-21T06:58:02.222Z,77.73
2019-01-21T06:59:02.185Z,77.52
2019-01-21T07:00:02.184Z,76.47
2019-01-21T07:01:02.196Z,77.56
2019-01-21T07:02:02.161Z,78.19
2019-01-21T07:03:02.141Z,78.54
2019-01-21T07:04:02.157Z,78.61
2019-01-21T07:05:02.257Z,78.82
2019-01-21T07:06:02.106Z,79.03
2019-01-21T07:07:02.102Z,78.92
2019-01-21T07:08:02.092Z,79.13
2019-01-21T07:09:02.083Z,79.35
2019-01-21T07:10:02.075Z,79.24
2019-01-21T07:11:02.093Z,78.89
2019-01-21T07:12:02.045Z,78.47
2019-01-21T07:13:02.035Z,77.62
2019-01-21T07:14:02.025Z,77.84
2019-01-21T07:15:02.009Z,77.84
2019-01-21T07:16:02.018Z,77.28
2019-01-21T07:17:02.017Z,77.38
2019-01-21T07:18:01.977Z,76.61
2019-01-21T07:19:01.966Z,76.02
2019-01-21T07:20:01.961Z,77.28
2019-01-21T07:21:01.947Z,77.17
2019-01-21T07:22:01.959Z,77.24
2019-01-21T07:23:01.927Z,76.93
2019-01-21T07:24:01.952Z,77.14
2019-01-21T07:25:01.908Z,77.45
2019-01-21T07:26:01.893Z,76.47
2019-01-21T07:27:01.920Z,75.74
2019-01-21T07:28:01.872Z,75.32
2019-01-21T07:29:01.861Z,74.87
2019-01-21T07:30:01.851Z,74.76
2019-01-21T07:31:01.850Z,74.06
2019-01-21T07:32:01.867Z,74.90
2019-01-21T07:33:01.838Z,74.93
2019-01-21T07:34:01.802Z,75.35
2019-01-21T07:35:01.795Z,76.19
2019-01-21T07:36:01.789Z,76.02
2019-01-21T07:37:01.783Z,76.65
2019-01-21T07:38:01.803Z,76.09
2019-01-21T07:39:01.749Z,76.02
2019-01-21T07:40:01.741Z,76.02
2019-01-21T07:41:01.764Z,76.33
2019-01-21T07:42:01.796Z,76.47
2019-01-21T07:43:01.726Z,77.38
2019-01-21T07:44:01.723Z,77.28
2019-01-21T07:45:01.691Z,77.28
2019-01-21T07:46:01.671Z,77.07
2019-01-21T07:47:01.661Z,77.28
2019-01-21T07:48:01.704Z,77.56
2019-01-21T07:49:01.640Z,75.98
2019-01-21T07:50:01.629Z,75.46
2019-01-21T07:51:01.622Z,75.88
2019-01-21T07:52:01.606Z,75.56
2019-01-21T07:53:01.597Z,75.46
2019-01-21T07:54:01.606Z,74.83
2019-01-21T07:55:01.579Z,75.46
2019-01-21T07:56:01.586Z,75.25
2019-01-21T07:57:01.559Z,75.28
2019-01-21T07:58:01.543Z,75.38
2019-01-21T07:59:01.576Z,76.26
2019-01-21T08:00:01.546Z,75.63
2019-01-21T08:01:01.511Z,75.95
2019-01-21T08:02:01.530Z,76.05
2019-01-21T08:03:01.483Z,76.51
2019-01-21T08:04:01.482Z,75.95
2019-01-21T08:05:01.465Z,76.51
2019-01-21T08:06:01.450Z,77.24
2019-01-21T08:07:01.501Z,77.52
2019-01-21T08:08:01.461Z,77.56
2019-01-21T08:09:01.462Z,76.79
2019-01-21T08:10:01.406Z,77.42
2019-01-21T08:11:01.418Z,77.45
2019-01-21T08:12:01.390Z,77.52
2019-01-21T08:13:01.383Z,76.43
2019-01-21T08:14:01.474Z,76.12
2019-01-21T08:15:01.402Z,75.70
2019-01-21T08:16:01.346Z,75.28
2019-01-21T08:17:01.359Z,75.56
2019-01-21T08:18:01.323Z,75.78
2019-01-21T08:19:01.322Z,75.56
2019-01-21T08:20:01.307Z,75.35
2019-01-21T08:21:01.331Z,75.78
2019-01-21T08:22:01.276Z,75.98
2019-01-21T08:23:02.025Z,75.67
2019-01-21T08:24:01.256Z,75.04
2019-01-21T08:25:01.308Z,75.14
2019-01-21T08:26:01.238Z,74.37
2019-01-21T08:27:01.232Z,75.01
2019-01-21T08:28:01.215Z,74.69
2019-01-21T08:29:01.210Z,74.48
2019-01-21T08:30:01.190Z,74.79
2019-01-21T08:31:01.211Z,75.11
2019-01-21T08:32:01.188Z,74.79
2019-01-21T08:33:01.165Z,74.06
2019-01-21T08:34:01.193Z,74.16
2019-01-21T08:35:01.160Z,74.30
2019-01-21T08:36:01.226Z,74.30
2019-01-21T08:37:01.208Z,73.92
2019-01-21T08:38:01.107Z,74.97
2019-01-21T08:39:01.125Z,75.00
2019-01-21T08:40:01.086Z,75.32
2019-01-21T08:41:01.073Z,76.15
2019-01-21T08:42:01.055Z,76.15
2019-01-21T08:43:01.086Z,76.05
2019-01-21T08:44:01.048Z,76.15
2019-01-21T08:45:01.052Z,76.02
2019-01-21T08:46:01.031Z,75.78
2019-01-21T08:47:01.001Z,75.14
2019-01-21T08:48:00.997Z,74.93
2019-01-21T08:49:01.022Z,74.51
2019-01-21T08:50:00.997Z,74.55
2019-01-21T08:51:00.959Z,75.38
2019-01-21T08:52:00.973Z,75.49
2019-01-21T08:53:00.945Z,75.91
2019-01-21T08:54:00.963Z,76.47
2019-01-21T08:55:00.962Z,76.05
2019-01-21T08:56:00.916Z,76.68
2019-01-21T08:57:00.914Z,76.61
2019-01-21T08:58:00.892Z,76.19
2019-01-21T08:59:00.879Z,76.37
2019-01-21T09:00:00.869Z,76.47
2019-01-21T09:01:00.898Z,76.23
2019-01-21T09:02:00.843Z,75.70
2019-01-21T09:03:00.871Z,76.23
2019-01-21T09:04:00.837Z,75.18
2019-01-21T09:05:00.825Z,75.25
2019-01-21T09:06:00.801Z,74.51
2019-01-21T09:07:00.906Z,74.83
2019-01-21T09:08:00.789Z,75.25
2019-01-21T09:09:00.777Z,75.04
2019-01-21T09:10:00.766Z,74.93
2019-01-21T09:11:00.790Z,73.78
2019-01-21T09:12:00.731Z,75.07
2019-01-21T09:13:00.736Z,75.28
2019-01-21T09:14:00.719Z,76.12
2019-01-21T09:15:00.714Z,75.81
2019-01-21T09:16:00.725Z,75.88
2019-01-21T09:17:00.682Z,75.67
2019-01-21T09:18:00.700Z,75.35
2019-01-21T09:19:00.677Z,74.79
2019-01-21T09:20:00.652Z,74.58
2019-01-21T09:21:00.692Z,74.16
2019-01-21T09:22:00.626Z,74.90
2019-01-21T09:23:00.614Z,73.96
2019-01-21T09:24:00.610Z,74.58
2019-01-21T09:25:00.596Z,74.55
2019-01-21T09:26:00.614Z,73.61
2019-01-21T09:27:00.613Z,72.91
2019-01-21T09:28:00.563Z,73.96
2019-01-21T09:29:00.555Z,74.41
2019-01-21T09:30:00.546Z,74.30
2019-01-21T09:31:00.536Z,74.55
2019-01-21T09:32:00.549Z,75.18
2019-01-21T09:33:00.606Z,75.81
2019-01-21T09:34:00.515Z,76.23
2019-01-21T09:35:00.511Z,76.12
2019-01-21T09:36:00.479Z,76.23
2019-01-21T09:37:00.467Z,76.23
2019-01-21T09:38:00.473Z,75.14
2019-01-21T09:39:00.447Z,75.35
2019-01-21T09:40:00.534Z,75.07
2019-01-21T09:41:00.423Z,75.28
2019-01-21T09:42:00.421Z,75.81
2019-01-21T09:43:00.414Z,76.47
2019-01-21T09:44:00.410Z,75.95
2019-01-21T09:45:00.389Z,76.43
2019-01-21T09:46:00.389Z,76.12
2019-01-21T09:47:01.658Z,76.12
2019-01-21T09:48:00.366Z,76.15
2019-01-21T09:49:00.347Z,76.57
2019-01-21T09:50:00.329Z,77.48
2019-01-21T09:51:00.387Z,77.73
2019-01-21T09:52:00.324Z,76.79
2019-01-21T09:53:00.289Z,77.38
2019-01-21T09:54:00.286Z,77.48
2019-01-21T09:55:00.268Z,76.75
2019-01-21T09:56:00.309Z,76.86
2019-01-21T09:57:00.312Z,76.09
2019-01-21T09:58:00.254Z,75.25
2019-01-21T09:59:00.230Z,75.67
2019-01-21T10:00:00.235Z,75.14
2019-01-21T10:01:00.200Z,75.60
2019-01-21T10:02:00.198Z,76.33
2019-01-21T10:03:00.241Z,75.70
2019-01-21T10:04:00.179Z,76.05
2019-01-21T10:05:00.299Z,76.47
2019-01-21T10:06:00.154Z,77.56
2019-01-21T10:07:00.149Z,78.29
2019-01-21T10:08:01.373Z,77.56
2019-01-21T10:09:00.163Z,77.56
2019-01-21T10:10:00.196Z,77.56
2019-01-21T10:11:03.499Z,77.21
2019-01-21T10:12:00.101Z,77.21
2019-01-21T10:13:00.103Z,77.48
2019-01-21T10:14:00.106Z,77.59
2019-01-21T10:15:00.051Z,76.72
2019-01-21T10:16:00.178Z,75.67
2019-01-21T10:17:00.029Z,74.51
2019-01-21T10:18:00.027Z,75.04
2019-01-21T10:19:00.021Z,74.93
2019-01-21T10:20:00.084Z,75.18
2019-01-21T10:20:59.989Z,74.90
2019-01-21T10:22:00.037Z,75.81
2019-01-21T10:22:59.970Z,76.15
2019-01-21T10:23:59.986Z,76.05
2019-01-21T10:24:59.983Z,76.15
2019-01-21T10:25:59.939Z,76.57
2019-01-21T10:26:59.936Z,76.68
2019-01-21T10:27:59.911Z,76.57
2019-01-21T10:28:59.937Z,76.79
2019-01-21T10:29:59.956Z,77.31
2019-01-21T10:30:59.879Z,77.10
2019-01-21T10:31:59.872Z,77.48
2019-01-21T10:32:59.869Z,77.17
2019-01-21T10:33:59.847Z,77.17
2019-01-21T10:34:59.857Z,76.65
2019-01-21T10:35:59.891Z,76.40
2019-01-21T10:36:59.810Z,75.56
2019-01-21T10:37:59.804Z,76.19
2019-01-21T10:38:59.800Z,75.56
2019-01-21T10:39:59.784Z,75.25
2019-01-21T10:40:59.801Z,75.25
2019-01-21T10:41:59.770Z,75.56
2019-01-21T10:42:59.749Z,75.11
2019-01-21T10:43:59.816Z,74.27
2019-01-21T10:44:59.734Z,74.79
2019-01-21T10:45:59.722Z,74.06
2019-01-21T10:46:59.711Z,75.18
2019-01-21T10:47:59.713Z,73.50
2019-01-21T10:48:59.691Z,73.29
2019-01-21T10:49:59.704Z,73.39
2019-01-21T10:50:59.672Z,74.24
2019-01-21T10:51:59.653Z,73.96
2019-01-21T10:52:59.651Z,73.85
2019-01-21T10:53:59.651Z,74.06
2019-01-21T10:54:59.651Z,74.06
2019-01-21T10:55:59.635Z,74.27
2019-01-21T10:57:00.415Z,74.73
2019-01-21T10:57:59.595Z,75.25
2019-01-21T10:58:59.593Z,74.93
2019-01-21T10:59:59.634Z,75.14
2019-01-21T11:00:59.558Z,75.42
2019-01-21T11:01:59.609Z,74.79
2019-01-21T11:02:59.541Z,74.44
2019-01-21T11:03:59.524Z,73.36
2019-01-21T11:04:59.513Z,72.84
2019-01-21T11:05:59.591Z,72.84
2019-01-21T11:06:59.488Z,72.74
2019-01-21T11:07:59.482Z,71.76
2019-01-21T11:08:59.502Z,71.58
2019-01-21T11:09:59.468Z,72.00
2019-01-21T11:10:59.456Z,71.69
2019-01-21T11:11:59.473Z,71.58
2019-01-21T11:12:59.442Z,72.34
2019-01-21T11:13:59.430Z,72.34
2019-01-21T11:14:59.413Z,72.24
2019-01-21T11:15:59.390Z,73.54
2019-01-21T11:16:59.406Z,73.54
2019-01-21T11:17:59.368Z,73.43
2019-01-21T11:18:59.364Z,73.78
2019-01-21T11:20:03.957Z,74.27
2019-01-21T11:21:00.468Z,73.99
2019-01-21T11:21:59.375Z,74.93
2019-01-21T11:22:59.317Z,74.73
2019-01-21T11:23:59.298Z,74.62
2019-01-21T11:24:59.322Z,75.21
2019-01-21T11:25:59.281Z,74.76
2019-01-21T11:26:59.293Z,73.79
2019-01-21T11:27:59.314Z,73.05
2019-01-21T11:28:59.256Z,72.74
2019-01-21T11:29:59.233Z,72.31
2019-01-21T11:30:59.230Z,72.94
2019-01-21T11:31:59.218Z,72.31
2019-01-21T11:32:59.318Z,72.11
2019-01-21T11:33:59.189Z,71.97
2019-01-21T11:34:59.176Z,71.89
2019-01-21T11:35:59.197Z,72.24
2019-01-21T11:36:59.155Z,72.24
2019-01-21T11:37:59.150Z,72.77
2019-01-21T11:38:59.156Z,72.87
2019-01-21T11:39:59.121Z,72.98
2019-01-21T11:40:59.111Z,72.56
2019-01-21T11:41:59.091Z,72.66
2019-01-21T11:42:59.081Z,72.34
2019-01-21T11:43:59.083Z,72.87
2019-01-21T11:44:59.091Z,72.42
2019-01-21T11:45:59.082Z,72.00
2019-01-21T11:46:59.068Z,72.45
2019-01-21T11:47:59.029Z,72.56
2019-01-21T11:48:59.022Z,73.01
2019-01-21T11:49:59.029Z,73.54
2019-01-21T11:50:58.996Z,73.33
2019-01-21T11:51:58.993Z,73.71
2019-01-21T11:52:59.003Z,73.19
2019-01-21T11:53:58.973Z,73.19
2019-01-21T11:54:59.029Z,73.19
2019-01-21T11:55:58.983Z,72.94
2019-01-21T11:56:58.938Z,73.08
2019-01-21T11:57:58.924Z,72.87
2019-01-21T11:58:59.017Z,73.61
2019-01-21T11:59:59.204Z,72.84
2019-01-21T12:00:58.895Z,72.31
2019-01-21T12:01:58.871Z,71.97
2019-01-21T12:02:58.861Z,72.07
2019-01-21T12:03:58.975Z,71.55
2019-01-21T12:04:58.842Z,70.78
2019-01-21T12:05:59.051Z,71.13
2019-01-21T12:06:58.830Z,71.23
2019-01-21T12:07:58.800Z,71.34
2019-01-21T12:08:58.792Z,71.55
2019-01-21T12:09:58.784Z,71.13
2019-01-21T12:10:58.787Z,71.13
2019-01-21T12:11:58.798Z,71.37
2019-01-21T12:12:58.752Z,72.00
2019-01-21T12:13:58.736Z,72.42
2019-01-21T12:14:58.733Z,72.42
2019-01-21T12:15:58.716Z,72.11
2019-01-21T12:16:58.757Z,71.69
2019-01-21T12:17:58.691Z,72.11
2019-01-21T12:18:58.681Z,72.31
2019-01-21T12:19:58.670Z,71.97
2019-01-21T12:20:58.655Z,71.76
2019-01-21T12:21:58.648Z,71.31
2019-01-21T12:22:58.661Z,70.81
2019-01-21T12:23:58.769Z,70.78
2019-01-21T12:24:58.659Z,70.89
2019-01-21T12:25:58.601Z,71.86
2019-01-21T12:26:58.586Z,72.52
2019-01-21T12:27:58.616Z,72.63
2019-01-21T12:28:58.591Z,72.42
2019-01-21T12:29:58.565Z,72.94
2019-01-21T12:30:58.547Z,73.57
2019-01-21T12:31:58.553Z,72.91
2019-01-21T12:32:58.550Z,73.12
2019-01-21T12:33:58.570Z,71.41
2019-01-21T12:34:58.511Z,71.66
2019-01-21T12:35:58.495Z,71.86
2019-01-21T12:36:58.491Z,71.86
2019-01-21T12:37:58.478Z,71.79
2019-01-21T12:38:58.453Z,71.51
2019-01-21T12:39:58.481Z,71.61
2019-01-21T12:40:58.452Z,72.03
2019-01-21T12:41:58.432Z,71.96
2019-01-21T12:42:58.410Z,72.91
2019-01-21T12:43:58.405Z,72.87
2019-01-21T12:44:58.421Z,72.80
2019-01-21T12:45:58.389Z,73.54
2019-01-21T12:46:58.369Z,73.22
2019-01-21T12:47:58.369Z,73.22
2019-01-21T12:48:58.347Z,73.50
2019-01-21T12:49:58.352Z,73.71
2019-01-21T12:50:58.375Z,73.19
2019-01-21T12:51:58.315Z,73.61